CheckWX is a tool to help pilots better visualize weather data.  It is not intended as a substitute for an official pre-flight weather briefing.

04:43:24 UTC

EGGD TAF
Bristol International Airport
Bristol, United Kingdom
TAF EGGD 222252Z 2300/2324 18004KT 9999 FEW005 SCT015 TEMPO 2300/2309 7000 BKN005 PROB40 TEMPO 2300/2308 2000 BR BKN003

Aug-23@
00:00 UTC

Aug-23 @ 00:00 UTC

Aug-24@
00:00 UTC

Aug-24 @ 00:00 UTC

TAF EGGD 222252Z 2300/2324 18004KT 9999 FEW005 SCT015
Wind
  • 180° at 4 KTS
Cloud Levels
  • Few at 500' AGL
  • Scattered at 1,500' AGL

Aug-23@
00:00 UTC

Aug-23 @ 00:00 UTC

Aug-23@
08:00 UTC

Aug-23 @ 08:00 UTC

PROB40 TEMPO 2300/2308 2000 BR BKN003

Temporary - 40% Likelihood

Temporary - 40% Likelihood during this time.

Conditions
Mist
Cloud Levels
  • Broken at 300' AGL

Aug-23@
00:00 UTC

Aug-23 @ 00:00 UTC

Aug-23@
09:00 UTC

Aug-23 @ 09:00 UTC

TEMPO 2300/2309 7000 BKN005

Temporary

Temporary Changes expected for less than half the time period

Cloud Levels
  • Broken at 500' AGL